Pine Falls, Canada
Current Conditions -  °F | °C
As of 7:00 PM on Tuesday 21 Oct 2014 (Local Time) from CYWG Reporting Station
Few Clouds Few Clouds  
Wind Chill: 55°   Ceiling: Unl
Heat Index: 55°   Visibility: 15mi
Dew Point: 39°   Wind: 20mph
Humidity: 54%   Direction: 150°SSE
Pressure: 29.83"   Gusts: 26mph
Location:  50.55°N, 96.23°W
Report Text: CYWG 220000Z 15017G23KT 15SM FEW160 13/04 A2983 RMK AC1 AC TR SLP108 DENSITY ALT 800FT
Loading
Personal Weather Stations






























Interactive Weather Map
Tropical Storm Tracking
New forecast layout! Learn more

10-Day Weather Forecast

Advertisements
Track Severe Weather on mobile